EIMG weather

CLOSED Moneygall Aerodrome
Moneygall, County Offaly, Ireland

Public forecast

Using degrees Celsius for public forecast. Weather courtesy of forecast.io.

Closest aviation weather report (METAR) to Moneygall Aerodrome

Closest report is Shannon Airport, 35.3 nm (65.5 km) WSW. Retrieved 2019/12/10 23:30 UTC (16 minutes ago):

EINN 102330Z 22008KT 9999 -SHRA FEW013 SCT018CB BKN060 05/03 Q1005 NOSIG

Closest aviation forecast (TAF) to Moneygall Aerodrome

Closest forecast is Shannon Airport, 35.3 nm (65.5 km) WSW. Retrieved 2019/12/10 18:10 UTC (6 hours ago):

TAF EINN 101700Z 1018/1118 25015KT 9999 FEW015 BKN025 TEMPO 1018/1101 26020G30KT 5000 -SHRAGS SCT013 SCT018CB TEMPO 1101/1114 4000 SHRAGS BKN013 SCT018CB BECMG 1101/1103 22016KT TEMPO 1101/1106 24020G32KT BECMG 1106/1108 25015G26KT PROB30 TEMPO 1107/1109 -SHRASN BECMG 1109/1111 27015KT TEMPO 1110/1115 28017G28KT